Time;durP1;ratioP1;P1;durP2;ratioP2;P2;SDS_P1;SDS_P2;PMS_P1;PMS_P2;Temp;Humidity;BMP_temperature;BMP_pressure;BME280_temperature;BME280_humidity;BME280_pressure;Samples;Min_cycle;Max_cycle;Signal;HPM_P1;HPM_P2
2023/11/01 00:02:48;;;;;;;2.42;0.70;;;12.00;99.90;;;;;;6240116;28;20045;-76
2023/11/01 00:05:50;;;;;;;2.33;0.85;;;12.00;99.90;;;;;;6251051;28;20056;-76
2023/11/01 00:08:53;;;;;;;2.85;0.88;;;12.00;99.90;;;;;;6252364;28;20052;-77
2023/11/01 00:11:54;;;;;;;7.57;1.52;;;12.00;99.90;;;;;;6248358;28;20045;-76
2023/11/01 00:14:57;;;;;;;2.28;1.02;;;12.10;99.90;;;;;;6256868;28;20041;-77
2023/11/01 00:17:58;;;;;;;0.70;0.70;;;12.00;99.90;;;;;;6272206;28;20098;-77
2023/11/01 00:21:00;;;;;;;1.58;0.80;;;12.00;99.90;;;;;;6271967;28;20049;-77
2023/11/01 00:24:03;;;;;;;1.25;0.68;;;12.00;99.90;;;;;;6271899;28;20052;-77
2023/11/01 00:27:05;;;;;;;1.13;0.80;;;12.10;99.90;;;;;;6272689;28;20465;-77
2023/11/01 00:30:08;;;;;;;10.10;0.80;;;12.10;99.90;;;;;;6273047;28;20044;-77
2023/11/01 00:33:10;;;;;;;3.95;0.95;;;12.10;99.90;;;;;;6272596;28;20072;-78
2023/11/01 00:36:13;;;;;;;22.30;2.53;;;12.00;99.90;;;;;;6265476;28;20045;-77
2023/11/01 00:39:16;;;;;;;0.65;0.52;;;12.10;99.90;;;;;;6248383;28;20088;-77
2023/11/01 00:42:19;;;;;;;5.25;1.00;;;12.10;99.90;;;;;;6248395;28;20045;-78
2023/11/01 00:45:21;;;;;;;1.63;0.60;;;12.10;99.90;;;;;;6248584;28;20049;-77
2023/11/01 00:48:22;;;;;;;3.72;0.85;;;12.10;99.90;;;;;;6247031;28;20542;-77
2023/11/01 00:51:24;;;;;;;0.50;0.50;;;12.00;99.90;;;;;;6254847;28;20061;-77
2023/11/01 00:54:27;;;;;;;3.05;0.65;;;12.10;99.90;;;;;;6249004;28;20056;-77
2023/11/01 00:57:29;;;;;;;2.13;0.73;;;12.00;99.90;;;;;;6247521;28;20038;-77
2023/11/01 01:00:30;;;;;;;5.03;1.10;;;11.90;99.90;;;;;;6247682;28;20050;-77
2023/11/01 01:03:32;;;;;;;1.02;0.65;;;11.90;99.90;;;;;;6248241;28;20049;-77
2023/11/01 01:06:34;;;;;;;7.22;0.93;;;11.90;99.90;;;;;;6247775;28;20041;-77
2023/11/01 01:09:37;;;;;;;0.65;0.63;;;11.90;99.90;;;;;;6248012;28;20049;-76
2023/11/01 01:12:38;;;;;;;5.65;1.60;;;11.90;99.90;;;;;;6246802;28;20049;-77
2023/11/01 01:15:40;;;;;;;0.70;0.70;;;11.80;99.90;;;;;;6247039;28;20058;-76
2023/11/01 01:18:42;;;;;;;3.22;0.73;;;11.80;99.90;;;;;;6246969;28;20516;-77
2023/11/01 01:21:45;;;;;;;3.10;0.50;;;11.80;99.90;;;;;;6247247;28;20057;-77
2023/11/01 01:24:48;;;;;;;1.48;0.52;;;11.80;99.90;;;;;;6246747;28;20060;-76
2023/11/01 01:27:49;;;;;;;1.48;0.82;;;11.80;99.90;;;;;;6247583;28;20046;-77
2023/11/01 01:30:51;;;;;;;0.95;0.95;;;11.80;99.90;;;;;;6265332;28;20041;-76
2023/11/01 01:33:53;;;;;;;0.45;0.45;;;11.80;99.90;;;;;;6256497;28;20045;-77
2023/11/01 01:36:54;;;;;;;3.65;1.00;;;11.80;99.90;;;;;;6277219;28;20049;-76
2023/11/01 01:39:57;;;;;;;7.50;1.10;;;11.80;99.90;;;;;;6267027;28;20053;-76
2023/11/01 01:43:10;;;;;;;8.90;1.08;;;11.80;99.90;;;;;;6275572;28;20049;-77
2023/11/01 01:46:14;;;;;;;0.98;0.82;;;11.70;99.90;;;;;;6275133;28;20048;-77
2023/11/01 01:49:16;;;;;;;0.80;0.80;;;11.70;99.90;;;;;;6275082;28;20040;-77
2023/11/01 01:52:18;;;;;;;1.00;0.47;;;11.70;99.90;;;;;;6275182;28;20041;-77
2023/11/01 01:55:21;;;;;;;1.10;0.30;;;11.70;99.90;;;;;;6275924;28;20059;-77
2023/11/01 01:58:24;;;;;;;1.52;0.65;;;11.70;99.90;;;;;;6276619;28;20048;-77
2023/11/01 02:01:29;;;;;;;1.58;0.65;;;11.70;99.90;;;;;;6263398;28;20050;-77
2023/11/01 02:04:31;;;;;;;0.65;0.65;;;11.70;99.90;;;;;;6252720;28;20045;-76
2023/11/01 02:07:32;;;;;;;0.85;0.68;;;11.70;99.90;;;;;;6251194;28;20502;-77
2023/11/01 02:10:35;;;;;;;2.25;0.60;;;11.80;99.90;;;;;;6250821;28;20056;-76
2023/11/01 02:13:37;;;;;;;1.45;0.90;;;11.80;99.90;;;;;;6250617;28;20540;-77
2023/11/01 02:16:39;;;;;;;0.52;0.52;;;11.80;99.90;;;;;;6249591;28;20557;-77
2023/11/01 02:19:41;;;;;;;1.55;0.65;;;11.70;99.90;;;;;;6249939;28;20718;-76
2023/11/01 02:22:43;;;;;;;1.63;0.70;;;11.60;99.90;;;;;;6249631;28;20042;-76
2023/11/01 02:25:46;;;;;;;1.75;0.50;;;11.60;99.90;;;;;;6249330;28;20046;-76
2023/11/01 02:28:47;;;;;;;3.80;1.33;;;11.50;99.90;;;;;;6249195;28;20046;-77
2023/11/01 02:31:50;;;;;;;3.85;0.40;;;11.50;99.90;;;;;;6249829;28;20050;-77
2023/11/01 02:34:51;;;;;;;3.20;0.77;;;11.40;99.90;;;;;;6249348;28;20049;-76
2023/11/01 02:37:53;;;;;;;1.85;0.55;;;11.40;99.90;;;;;;6249265;28;20037;-77
2023/11/01 02:40:56;;;;;;;1.20;0.50;;;11.40;99.90;;;;;;6275865;28;20049;-77
2023/11/01 02:43:58;;;;;;;1.15;0.68;;;11.40;99.90;;;;;;6275460;28;20513;-77
2023/11/01 02:46:59;;;;;;;5.07;1.00;;;11.50;99.90;;;;;;6274845;28;20566;-77
2023/11/01 02:50:01;;;;;;;0.60;0.60;;;11.50;99.90;;;;;;6275435;28;20059;-76
2023/11/01 02:53:03;;;;;;;1.55;0.75;;;11.60;99.90;;;;;;6275043;28;20048;-77
2023/11/01 02:56:07;;;;;;;2.92;0.80;;;11.60;99.90;;;;;;6274624;28;20049;-77
2023/11/01 02:59:09;;;;;;;0.57;0.40;;;11.70;99.90;;;;;;6275118;28;20072;-76
2023/11/01 03:02:10;;;;;;;3.35;1.52;;;11.70;99.90;;;;;;6275371;28;20049;-77
2023/11/01 03:05:12;;;;;;;1.00;0.40;;;11.70;99.90;;;;;;6274139;28;20057;-76
2023/11/01 03:08:14;;;;;;;3.28;0.55;;;11.70;99.90;;;;;;6278199;28;20426;-76
2023/11/01 03:11:17;;;;;;;5.25;1.15;;;11.70;99.90;;;;;;6279517;28;20129;-77
2023/11/01 03:14:19;;;;;;;2.22;0.70;;;11.80;99.90;;;;;;6275436;28;20044;-77
2023/11/01 03:17:20;;;;;;;1.65;0.60;;;11.90;99.90;;;;;;6275539;28;20144;-78
2023/11/01 03:20:22;;;;;;;2.75;0.65;;;12.00;99.90;;;;;;6276431;28;20049;-78
2023/11/01 03:23:24;;;;;;;0.80;0.70;;;12.10;99.90;;;;;;6275508;28;20076;-77
2023/11/01 03:26:27;;;;;;;0.73;0.52;;;12.10;99.90;;;;;;6275582;28;20422;-77
2023/11/01 03:29:28;;;;;;;0.80;0.50;;;12.10;99.90;;;;;;6275115;28;20533;-76
2023/11/01 03:32:30;;;;;;;0.52;0.40;;;12.00;99.90;;;;;;6274615;28;20048;-77
2023/11/01 03:35:32;;;;;;;0.73;0.57;;;12.00;99.90;;;;;;6275590;28;20060;-78
2023/11/01 03:38:33;;;;;;;6.65;0.60;;;12.00;99.90;;;;;;6271889;28;20049;-77
2023/11/01 03:41:39;;;;;;;6.43;0.63;;;12.00;99.90;;;;;;6251035;28;20046;-77
2023/11/01 03:44:41;;;;;;;1.33;0.55;;;11.90;99.90;;;;;;6250228;28;20056;-77
2023/11/01 03:47:43;;;;;;;2.08;0.75;;;11.90;99.90;;;;;;6250244;28;20124;-77
2023/11/01 03:50:45;;;;;;;3.10;0.38;;;11.80;99.90;;;;;;6249473;28;20057;-77
2023/11/01 03:53:46;;;;;;;0.40;0.30;;;11.70;99.90;;;;;;6248930;28;20418;-78
2023/11/01 03:56:49;;;;;;;2.40;0.30;;;11.70;99.90;;;;;;6248412;28;20502;-77
2023/11/01 03:59:51;;;;;;;0.68;0.25;;;11.60;99.90;;;;;;6247898;28;20053;-77
2023/11/01 04:02:53;;;;;;;4.00;0.50;;;11.50;99.90;;;;;;6248987;28;20045;-77
2023/11/01 04:05:55;;;;;;;1.77;0.68;;;11.40;99.90;;;;;;6248554;28;20049;-77
2023/11/01 04:08:57;;;;;;;0.30;0.30;;;11.40;99.90;;;;;;6249454;28;20049;-77
2023/11/01 04:12:00;;;;;;;0.80;0.68;;;11.30;99.90;;;;;;6250132;28;20048;-77
2023/11/01 04:15:05;;;;;;;2.35;0.50;;;11.20;99.90;;;;;;6241115;28;20060;-77
2023/11/01 04:18:06;;;;;;;0.85;0.45;;;11.20;99.90;;;;;;6259205;28;20045;-77
2023/11/01 04:21:08;;;;;;;0.50;0.50;;;11.20;99.90;;;;;;6249825;28;20042;-77
2023/11/01 04:24:10;;;;;;;0.65;0.60;;;11.20;99.90;;;;;;6249676;28;20045;-77
2023/11/01 04:27:13;;;;;;;0.25;0.25;;;11.20;99.90;;;;;;6250149;28;20057;-77
2023/11/01 04:30:15;;;;;;;0.93;0.55;;;11.10;99.90;;;;;;6248785;28;20048;-77
2023/11/01 04:33:17;;;;;;;4.25;1.17;;;11.10;99.90;;;;;;6251674;28;20038;-77
2023/11/01 04:36:24;;;;;;;3.80;0.70;;;11.00;99.90;;;;;;6272246;28;20052;-76
2023/11/01 04:39:26;;;;;;;0.55;0.45;;;11.00;99.90;;;;;;6251309;28;20042;-76
2023/11/01 04:42:29;;;;;;;0.47;0.38;;;11.00;99.90;;;;;;6246194;28;20049;-76
2023/11/01 04:45:31;;;;;;;1.35;0.50;;;10.90;99.90;;;;;;6245960;28;20123;-77
2023/11/01 04:48:33;;;;;;;1.55;0.40;;;11.00;99.90;;;;;;6245943;28;20118;-77
2023/11/01 04:51:34;;;;;;;0.82;0.38;;;10.90;99.90;;;;;;6254091;28;20046;-76
2023/11/01 04:54:36;;;;;;;2.45;0.50;;;11.00;99.90;;;;;;6245843;28;20055;-76
2023/11/01 04:57:41;;;;;;;0.63;0.50;;;11.00;99.90;;;;;;6245731;28;20049;-76
2023/11/01 05:00:43;;;;;;;1.02;0.55;;;11.10;99.90;;;;;;6245573;28;20458;-76
2023/11/01 05:03:45;;;;;;;3.15;0.50;;;11.10;99.90;;;;;;6260081;28;20682;-76
2023/11/01 05:06:47;;;;;;;6.85;0.50;;;11.10;99.90;;;;;;6247762;28;20042;-77
2023/11/01 05:09:48;;;;;;;3.72;0.43;;;11.00;99.90;;;;;;6245374;28;20183;-77
2023/11/01 05:12:51;;;;;;;3.40;0.88;;;11.10;99.90;;;;;;6244310;28;20508;-77
2023/11/01 05:15:54;;;;;;;5.32;0.60;;;11.00;99.90;;;;;;6245770;28;20049;-76
2023/11/01 05:18:55;;;;;;;1.75;0.63;;;11.00;99.90;;;;;;6252322;28;20037;-76
2023/11/01 05:21:57;;;;;;;0.50;0.47;;;10.90;99.90;;;;;;6263057;28;20041;-76
2023/11/01 05:24:59;;;;;;;0.63;0.55;;;10.80;99.90;;;;;;6252934;28;20068;-76
2023/11/01 05:28:02;;;;;;;0.70;0.45;;;10.70;99.90;;;;;;6260407;28;20132;-76
2023/11/01 05:31:04;;;;;;;0.32;0.32;;;10.70;99.90;;;;;;6245340;28;20050;-76
2023/11/01 05:34:06;;;;;;;1.15;0.95;;;10.60;99.90;;;;;;6245027;28;20041;-76
2023/11/01 05:37:09;;;;;;;1.02;0.82;;;10.60;99.90;;;;;;6245104;28;20135;-76
2023/11/01 05:40:14;;;;;;;7.05;0.60;;;10.60;99.90;;;;;;6253809;28;20068;-76
2023/11/01 05:43:17;;;;;;;2.13;0.40;;;10.50;99.90;;;;;;6270065;28;20494;-77
2023/11/01 05:46:21;;;;;;;1.13;0.50;;;10.50;99.90;;;;;;6269243;28;20502;-77
2023/11/01 05:49:23;;;;;;;1.33;0.43;;;10.40;99.90;;;;;;6269089;28;20399;-77
2023/11/01 05:52:27;;;;;;;0.93;0.60;;;10.40;99.90;;;;;;6250429;28;20395;-76
2023/11/01 05:55:30;;;;;;;5.78;0.63;;;10.30;99.90;;;;;;6245143;28;20045;-77
2023/11/01 05:58:33;;;;;;;1.40;0.50;;;10.30;99.90;;;;;;6244907;28;20099;-77
2023/11/01 06:01:35;;;;;;;0.77;0.43;;;10.20;99.90;;;;;;6244575;28;20038;-78
2023/11/01 06:04:36;;;;;;;0.65;0.55;;;10.20;99.90;;;;;;6244241;28;20120;-77
2023/11/01 06:07:38;;;;;;;2.53;0.63;;;10.10;99.90;;;;;;6244870;28;20045;-77
2023/11/01 06:10:40;;;;;;;1.67;0.82;;;10.10;99.90;;;;;;6252850;28;20037;-77
2023/11/01 06:13:43;;;;;;;3.42;0.50;;;10.10;99.90;;;;;;6244861;28;20049;-77
2023/11/01 06:16:45;;;;;;;0.60;0.43;;;10.00;99.90;;;;;;6244611;28;20046;-77
2023/11/01 06:19:48;;;;;;;1.27;0.57;;;9.90;99.90;;;;;;6245294;28;20042;-77
2023/11/01 06:22:50;;;;;;;0.25;0.25;;;9.80;99.90;;;;;;6245406;28;20049;-77
2023/11/01 06:25:52;;;;;;;3.92;0.75;;;9.80;99.90;;;;;;6249403;28;20535;-76
2023/11/01 06:28:55;;;;;;;1.92;0.73;;;9.60;99.90;;;;;;6249310;28;20064;-77
2023/11/01 06:31:57;;;;;;;2.67;0.85;;;9.60;99.90;;;;;;6249850;28;20073;-78
2023/11/01 06:34:59;;;;;;;1.42;0.60;;;9.60;99.90;;;;;;6255164;28;20045;-77
2023/11/01 06:38:01;;;;;;;3.63;0.80;;;9.60;99.90;;;;;;6249510;28;20051;-77
2023/11/01 06:41:04;;;;;;;4.32;0.65;;;9.60;99.90;;;;;;6248604;28;20071;-77
2023/11/01 06:44:08;;;;;;;7.43;2.25;;;9.60;99.90;;;;;;6248768;28;20053;-77
2023/11/01 06:47:10;;;;;;;0.52;0.52;;;9.60;99.90;;;;;;6249436;28;20129;-77
2023/11/01 06:50:12;;;;;;;0.55;0.55;;;9.60;99.90;;;;;;6249542;28;20041;-77
2023/11/01 06:53:14;;;;;;;4.20;1.52;;;9.60;99.90;;;;;;6248951;28;20055;-77
2023/11/01 06:56:15;;;;;;;1.65;0.68;;;9.60;99.90;;;;;;6249418;28;20049;-76
2023/11/01 06:59:18;;;;;;;2.35;0.93;;;9.60;99.90;;;;;;6248427;28;20487;-77
2023/11/01 07:02:20;;;;;;;4.60;3.70;;;9.60;99.90;;;;;;6252967;28;20533;-77
2023/11/01 07:05:22;;;;;;;1.85;1.30;;;9.70;99.90;;;;;;6248715;28;20049;-77
2023/11/01 07:08:24;;;;;;;3.80;1.60;;;9.70;99.90;;;;;;6248282;28;20421;-77
2023/11/01 07:11:25;;;;;;;2.85;1.00;;;9.80;99.90;;;;;;6248924;28;20050;-77
2023/11/01 07:14:28;;;;;;;5.10;1.42;;;9.90;99.90;;;;;;6247568;28;20057;-77
2023/11/01 07:17:30;;;;;;;4.60;1.23;;;10.00;99.90;;;;;;6247976;28;20052;-77
2023/11/01 07:20:32;;;;;;;8.85;2.30;;;10.10;99.90;;;;;;6248197;28;20046;-76
2023/11/01 07:23:33;;;;;;;2.88;2.47;;;10.20;99.90;;;;;;6248008;28;20057;-76
2023/11/01 07:26:35;;;;;;;14.57;6.53;;;10.30;99.90;;;;;;6247842;28;20052;-77
2023/11/01 07:29:38;;;;;;;22.13;8.98;;;10.50;99.90;;;;;;6247393;28;20037;-77
2023/11/01 07:32:40;;;;;;;15.27;6.88;;;10.60;99.90;;;;;;6247626;28;20045;-77
2023/11/01 07:35:42;;;;;;;28.38;10.38;;;10.80;99.90;;;;;;6246967;28;20060;-77
2023/11/01 07:38:43;;;;;;;43.08;20.05;;;11.00;99.90;;;;;;6247609;28;20042;-77
2023/11/01 07:41:45;;;;;;;34.03;13.82;;;11.10;99.90;;;;;;6250146;28;20049;-77
2023/11/01 07:44:48;;;;;;;26.98;14.02;;;11.30;99.90;;;;;;6250494;28;20046;-77
2023/11/01 07:47:50;;;;;;;15.38;7.50;;;11.50;99.90;;;;;;6247737;28;20510;-77
2023/11/01 07:50:51;;;;;;;12.60;6.50;;;11.70;99.90;;;;;;6246676;28;20534;-77
2023/11/01 07:53:53;;;;;;;12.20;6.05;;;11.90;99.90;;;;;;6247449;28;20064;-78
2023/11/01 07:56:55;;;;;;;2.65;1.60;;;12.10;99.90;;;;;;6247227;28;20400;-77
2023/11/01 07:59:58;;;;;;;1.52;0.90;;;12.30;99.90;;;;;;6246960;28;20569;-77
2023/11/01 08:03:00;;;;;;;1.38;0.82;;;12.50;99.90;;;;;;6247033;28;20056;-77
2023/11/01 08:06:02;;;;;;;1.63;0.93;;;12.80;99.90;;;;;;6246577;28;20045;-77
2023/11/01 08:09:04;;;;;;;14.63;2.38;;;13.10;99.90;;;;;;6261477;28;20175;-77
2023/11/01 08:12:06;;;;;;;3.70;2.63;;;13.50;99.90;;;;;;6271475;28;20045;-78
2023/11/01 08:15:11;;;;;;;1.02;0.95;;;13.80;99.90;;;;;;6271846;28;20040;-77
2023/11/01 08:18:13;;;;;;;1.83;0.73;;;14.00;99.90;;;;;;6271080;28;20047;-77
2023/11/01 08:21:14;;;;;;;1.23;0.63;;;14.20;99.90;;;;;;6262671;28;20045;-77
2023/11/01 08:24:16;;;;;;;3.03;0.77;;;14.20;99.90;;;;;;6246069;28;20049;-76
2023/11/01 08:27:18;;;;;;;5.30;0.93;;;14.40;99.90;;;;;;6246691;28;20045;-78
2023/11/01 08:30:21;;;;;;;3.42;1.13;;;14.60;99.90;;;;;;6263631;28;20052;-77
2023/11/01 08:33:23;;;;;;;0.65;0.40;;;14.80;99.90;;;;;;6229097;28;20060;-76
2023/11/01 08:36:24;;;;;;;1.55;1.02;;;15.00;99.90;;;;;;6241700;28;20057;-76
2023/11/01 08:39:26;;;;;;;2.55;1.40;;;15.00;99.90;;;;;;6256936;28;20048;-77
2023/11/01 08:42:29;;;;;;;1.90;0.60;;;15.00;99.90;;;;;;6255851;28;20051;-78
2023/11/01 08:45:32;;;;;;;0.80;0.80;;;14.90;99.90;;;;;;6254059;28;20053;-75
2023/11/01 08:48:34;;;;;;;4.35;0.57;;;15.00;99.90;;;;;;6241182;28;20052;-77
2023/11/01 08:51:38;;;;;;;1.17;0.52;;;15.00;99.90;;;;;;6251152;28;20517;-77
2023/11/01 08:54:40;;;;;;;4.28;0.68;;;15.10;99.90;;;;;;6246715;28;20041;-77
2023/11/01 08:57:44;;;;;;;5.15;0.50;;;15.20;99.90;;;;;;6246718;28;20048;-77
2023/11/01 09:00:47;;;;;;;2.35;1.10;;;15.30;99.90;;;;;;6258256;28;20046;-77
2023/11/01 09:03:48;;;;;;;1.33;1.23;;;15.30;99.90;;;;;;6247685;28;20052;-77
2023/11/01 09:06:50;;;;;;;1.52;0.73;;;15.40;99.90;;;;;;6249400;28;20042;-77
2023/11/01 09:09:53;;;;;;;7.13;1.70;;;15.50;99.90;;;;;;6250992;28;20041;-77
2023/11/01 09:12:55;;;;;;;1.02;0.60;;;15.60;99.90;;;;;;6248999;28;20050;-77
2023/11/01 09:15:59;;;;;;;0.65;0.57;;;15.80;99.90;;;;;;6260266;28;20040;-77
2023/11/01 09:19:00;;;;;;;8.05;1.30;;;15.90;99.90;;;;;;6271115;28;20049;-77
2023/11/01 09:22:02;;;;;;;2.35;1.10;;;16.00;99.90;;;;;;6254084;28;20045;-77
2023/11/01 09:25:04;;;;;;;0.82;0.80;;;16.10;99.90;;;;;;6247736;28;20056;-77
2023/11/01 09:28:06;;;;;;;0.50;0.35;;;16.30;99.90;;;;;;6245901;28;20121;-77
2023/11/01 09:31:09;;;;;;;1.45;0.57;;;16.60;99.90;;;;;;6246378;28;20042;-77
2023/11/01 09:34:11;;;;;;;0.82;0.63;;;16.80;99.90;;;;;;6252875;28;20520;-76
2023/11/01 09:37:13;;;;;;;0.57;0.45;;;16.70;99.90;;;;;;6247117;28;20651;-76
2023/11/01 09:40:14;;;;;;;1.13;0.70;;;16.90;99.90;;;;;;6245659;28;20056;-77
2023/11/01 09:43:20;;;;;;;3.85;0.80;;;17.20;99.90;;;;;;6270817;28;20060;-76
2023/11/01 09:46:23;;;;;;;4.25;1.10;;;17.60;99.90;;;;;;6238522;28;20064;-78
2023/11/01 09:49:25;;;;;;;4.05;1.15;;;17.80;99.90;;;;;;6253729;28;20048;-77
2023/11/01 09:52:28;;;;;;;5.35;0.63;;;18.20;99.90;;;;;;6246890;28;20049;-77
2023/11/01 09:55:30;;;;;;;2.33;0.73;;;18.40;99.90;;;;;;6261651;28;20055;-77
2023/11/01 09:58:33;;;;;;;0.85;0.70;;;18.70;99.90;;;;;;6239633;28;20430;-74
2023/11/01 10:01:36;;;;;;;1.70;0.70;;;18.80;99.90;;;;;;6232641;28;20498;-73
2023/11/01 10:04:39;;;;;;;2.10;0.73;;;19.00;99.90;;;;;;6236552;28;20041;-77
2023/11/01 10:07:41;;;;;;;3.53;1.20;;;19.20;99.90;;;;;;6269629;28;20075;-77
2023/11/01 10:10:42;;;;;;;0.90;0.57;;;19.50;99.90;;;;;;6247829;28;20045;-78
2023/11/01 10:13:44;;;;;;;4.72;0.70;;;19.70;99.90;;;;;;6271579;28;20052;-78
2023/11/01 10:16:48;;;;;;;4.25;0.90;;;19.80;99.90;;;;;;6265610;28;20040;-77
2023/11/01 10:19:50;;;;;;;4.43;1.17;;;19.90;99.90;;;;;;6265664;28;20036;-76
2023/11/01 10:22:52;;;;;;;1.40;0.68;;;20.00;99.90;;;;;;6266497;28;20044;-77
2023/11/01 10:25:53;;;;;;;5.13;0.77;;;20.10;99.90;;;;;;6266542;28;20048;-77
2023/11/01 10:28:55;;;;;;;2.85;0.45;;;20.20;99.90;;;;;;6261768;28;20049;-77
2023/11/01 10:31:59;;;;;;;0.95;0.45;;;20.20;99.90;;;;;;6250716;28;20041;-75
2023/11/01 10:35:10;;;;;;;0.70;0.60;;;20.30;99.90;;;;;;6247692;28;20045;-76
2023/11/01 10:38:13;;;;;;;2.30;0.50;;;20.50;99.90;;;;;;6248314;28;20160;-75
2023/11/01 10:41:16;;;;;;;2.17;1.10;;;20.60;99.90;;;;;;6262432;28;20037;-76
2023/11/01 10:44:20;;;;;;;0.93;0.57;;;20.60;99.90;;;;;;6265301;28;20450;-76
2023/11/01 10:47:23;;;;;;;1.38;0.73;;;20.60;99.90;;;;;;6269397;28;20054;-76
2023/11/01 10:50:27;;;;;;;2.25;1.27;;;20.40;99.90;;;;;;6273608;28;20052;-75
2023/11/01 10:53:29;;;;;;;1.90;0.70;;;20.10;99.90;;;;;;6265506;28;20136;-77
2023/11/01 10:56:31;;;;;;;1.17;0.57;;;19.80;99.90;;;;;;6257824;28;20056;-75
2023/11/01 10:59:41;;;;;;;2.28;0.50;;;19.60;99.90;;;;;;6262609;28;20064;-77
2023/11/01 11:02:52;;;;;;;0.95;0.40;;;19.60;99.90;;;;;;6263923;28;20041;-76
2023/11/01 11:05:56;;;;;;;1.85;0.57;;;19.60;99.90;;;;;;6258141;28;20053;-75
2023/11/01 11:09:22;;;;;;;1.70;0.50;;;19.70;99.90;;;;;;6262978;28;20045;-76
2023/11/01 11:12:24;;;;;;;1.55;0.73;;;19.70;99.90;;;;;;6264848;28;20814;-76
2023/11/01 11:15:59;;;;;;;2.03;0.45;;;19.70;99.90;;;;;;6263844;28;20067;-76
2023/11/01 11:19:02;;;;;;;2.58;0.70;;;19.60;99.90;;;;;;6261466;28;20049;-75
2023/11/01 11:22:05;;;;;;;1.42;0.70;;;19.30;99.90;;;;;;6264103;28;20168;-75
2023/11/01 11:25:07;;;;;;;1.00;0.93;;;19.10;99.90;;;;;;6256455;28;20045;-75
2023/11/01 11:28:09;;;;;;;5.63;1.80;;;18.90;99.90;;;;;;6267307;28;20056;-77
2023/11/01 11:31:16;;;;;;;1.67;0.55;;;18.80;99.90;;;;;;6271966;28;20041;-76
2023/11/01 11:34:20;;;;;;;2.05;0.63;;;18.80;99.90;;;;;;6257202;28;20105;-75
2023/11/01 11:37:29;;;;;;;1.05;0.57;;;18.80;99.90;;;;;;6255968;28;20045;-74
2023/11/01 11:40:30;;;;;;;0.68;0.60;;;18.80;99.90;;;;;;6241876;28;20061;-75
2023/11/01 11:44:00;;;;;;;2.85;0.75;;;18.90;99.90;;;;;;6264898;28;20136;-75
2023/11/01 11:47:31;;;;;;;2.72;0.68;;;18.80;99.90;;;;;;6264028;28;20048;-74
2023/11/01 11:50:34;;;;;;;2.95;0.40;;;18.60;99.90;;;;;;6248804;28;20048;-74
2023/11/01 11:53:36;;;;;;;0.77;0.70;;;18.60;99.90;;;;;;6256937;28;20053;-75
2023/11/01 11:56:39;;;;;;;0.73;0.45;;;18.70;99.90;;;;;;6258051;28;20045;-76
2023/11/01 11:59:42;;;;;;;0.32;0.30;;;18.90;99.90;;;;;;6262346;28;20056;-76
2023/11/01 12:02:48;;;;;;;2.70;0.50;;;19.00;99.90;;;;;;6258538;28;20054;-75
2023/11/01 12:06:00;;;;;;;7.97;2.00;;;19.30;99.90;;;;;;6253816;28;20041;-74
2023/11/01 12:09:03;;;;;;;1.15;0.63;;;19.60;99.90;;;;;;6254537;28;20197;-76
2023/11/01 12:12:11;;;;;;;1.98;0.50;;;20.00;99.90;;;;;;6250353;28;20052;-76
2023/11/01 12:15:13;;;;;;;0.30;0.30;;;20.40;99.90;;;;;;6262642;28;20045;-75
2023/11/01 12:18:17;;;;;;;1.83;0.40;;;20.50;99.90;;;;;;6267840;28;20079;-75
2023/11/01 12:21:20;;;;;;;1.02;0.57;;;20.40;99.90;;;;;;6272977;28;20042;-75
2023/11/01 12:24:25;;;;;;;1.05;0.35;;;20.30;99.90;;;;;;6255680;28;20053;-75
2023/11/01 12:27:30;;;;;;;0.55;0.55;;;20.20;99.90;;;;;;6255935;28;20053;-76
2023/11/01 12:30:33;;;;;;;1.48;0.35;;;20.10;99.90;;;;;;6262914;28;20044;-75
2023/11/01 12:33:35;;;;;;;1.85;0.60;;;19.80;99.90;;;;;;6253756;28;20115;-75
2023/11/01 12:36:38;;;;;;;0.50;0.40;;;19.60;99.90;;;;;;6249457;28;20057;-75
2023/11/01 12:39:40;;;;;;;1.08;0.57;;;19.40;99.90;;;;;;6246514;28;20183;-76
2023/11/01 12:42:43;;;;;;;0.95;0.25;;;19.30;99.90;;;;;;6254582;28;20045;-75
2023/11/01 12:45:44;;;;;;;2.17;0.40;;;19.20;99.90;;;;;;6254566;28;20049;-76
2023/11/01 12:48:48;;;;;;;0.60;0.47;;;19.20;99.90;;;;;;6249319;28;20072;-75
2023/11/01 12:51:51;;;;;;;0.40;0.40;;;19.10;99.90;;;;;;6251650;28;20512;-75
2023/11/01 12:54:52;;;;;;;2.10;0.30;;;19.10;99.90;;;;;;6249503;28;20418;-75
2023/11/01 12:57:55;;;;;;;1.48;0.50;;;19.00;99.90;;;;;;6259705;28;20446;-75
2023/11/01 13:00:56;;;;;;;1.00;0.40;;;19.00;99.90;;;;;;6254879;28;20414;-75
2023/11/01 13:03:59;;;;;;;0.75;0.20;;;19.10;99.90;;;;;;6262929;28;20103;-75
2023/11/01 13:07:03;;;;;;;0.63;0.30;;;19.30;99.90;;;;;;6258424;28;20045;-75
2023/11/01 13:10:06;;;;;;;0.98;0.40;;;19.40;99.90;;;;;;6257332;28;20052;-75
2023/11/01 13:13:08;;;;;;;0.50;0.32;;;19.50;99.90;;;;;;6262367;28;20126;-75
2023/11/01 13:16:10;;;;;;;2.50;0.50;;;19.70;99.90;;;;;;6251305;28;20111;-75
2023/11/01 13:19:12;;;;;;;0.80;0.40;;;19.90;99.90;;;;;;6264887;28;20071;-75
2023/11/01 13:22:15;;;;;;;0.88;0.43;;;20.00;99.90;;;;;;6260269;28;20041;-75
2023/11/01 13:25:17;;;;;;;2.25;1.45;;;20.00;99.90;;;;;;6257752;28;20172;-74
2023/11/01 13:28:18;;;;;;;1.15;0.98;;;19.90;99.90;;;;;;6252661;28;20050;-75
2023/11/01 13:31:20;;;;;;;4.70;3.70;;;19.80;99.90;;;;;;6270397;28;20050;-76
2023/11/01 13:34:22;;;;;;;3.78;2.33;;;19.90;99.90;;;;;;6244902;28;20049;-76
2023/11/01 13:37:25;;;;;;;1.15;0.60;;;19.70;99.90;;;;;;6252181;28;20045;-76
2023/11/01 13:40:27;;;;;;;1.02;0.90;;;19.60;99.90;;;;;;6246918;28;20049;-76
2023/11/01 13:43:29;;;;;;;7.15;1.27;;;19.40;99.90;;;;;;6245235;28;20050;-77
2023/11/01 13:46:30;;;;;;;2.13;0.60;;;19.20;99.90;;;;;;6244681;28;20053;-76
2023/11/01 13:49:32;;;;;;;2.95;1.60;;;19.00;99.90;;;;;;6247535;28;20050;-76
2023/11/01 13:52:35;;;;;;;1.13;1.05;;;18.80;99.90;;;;;;6247156;28;20049;-76
2023/11/01 13:55:38;;;;;;;0.77;0.40;;;18.50;99.90;;;;;;6245959;28;20045;-76
2023/11/01 13:58:43;;;;;;;8.20;4.97;;;18.30;99.90;;;;;;6246203;28;20053;-76
2023/11/01 14:01:45;;;;;;;1.58;0.98;;;18.20;99.90;;;;;;6245124;28;20049;-75
2023/11/01 14:04:46;;;;;;;6.82;3.83;;;18.10;99.90;;;;;;6243933;28;20422;-76
2023/11/01 14:07:50;;;;;;;1.05;0.77;;;17.90;99.90;;;;;;6244233;28;20057;-76
2023/11/01 14:10:53;;;;;;;1.17;0.82;;;17.80;99.90;;;;;;6258246;28;21399;-76
2023/11/01 14:13:55;;;;;;;0.47;0.40;;;17.60;99.90;;;;;;6255187;28;20041;-76
2023/11/01 14:16:57;;;;;;;1.00;0.50;;;17.50;99.90;;;;;;6260944;28;20052;-76
2023/11/01 14:19:58;;;;;;;0.40;0.40;;;17.40;99.90;;;;;;6270377;28;20533;-76
2023/11/01 14:23:01;;;;;;;2.30;0.40;;;17.30;99.90;;;;;;6266693;28;20387;-77
2023/11/01 14:26:03;;;;;;;1.88;0.73;;;17.10;99.90;;;;;;6270899;28;20052;-76
2023/11/01 14:29:06;;;;;;;0.68;0.47;;;17.00;99.90;;;;;;6270751;28;20535;-76
2023/11/01 14:32:07;;;;;;;1.50;0.47;;;16.90;99.90;;;;;;6259482;28;20503;-76
2023/11/01 14:35:10;;;;;;;3.88;0.75;;;16.70;99.90;;;;;;6248267;28;20421;-76
2023/11/01 14:38:13;;;;;;;0.40;0.40;;;16.60;99.90;;;;;;6265051;28;20045;-77
2023/11/01 14:41:15;;;;;;;2.40;0.60;;;16.50;99.90;;;;;;6258029;28;20490;-76
2023/11/01 14:44:17;;;;;;;2.90;1.45;;;16.40;99.90;;;;;;6276487;28;20044;-77
2023/11/01 14:47:19;;;;;;;0.70;0.30;;;16.30;99.90;;;;;;6253830;28;20045;-76
2023/11/01 14:50:20;;;;;;;4.60;0.70;;;16.30;99.90;;;;;;6274027;28;20048;-76
2023/11/01 14:53:23;;;;;;;0.70;0.50;;;16.20;99.90;;;;;;6274436;28;20505;-76
2023/11/01 14:56:25;;;;;;;1.52;0.57;;;16.20;99.90;;;;;;6258990;28;20414;-76
2023/11/01 14:59:27;;;;;;;1.10;0.90;;;16.20;99.90;;;;;;6248428;28;20056;-76
2023/11/01 15:02:28;;;;;;;2.38;0.50;;;16.10;99.90;;;;;;6249039;28;20060;-77
2023/11/01 15:05:30;;;;;;;6.93;0.65;;;16.10;99.90;;;;;;6249022;28;20054;-77
2023/11/01 15:08:33;;;;;;;1.70;0.45;;;16.10;99.90;;;;;;6259781;28;20095;-76
2023/11/01 15:11:35;;;;;;;0.60;0.40;;;16.00;99.90;;;;;;6258080;28;20049;-77
2023/11/01 15:14:37;;;;;;;1.38;0.57;;;15.90;99.90;;;;;;6273704;28;20052;-76
2023/11/01 15:17:39;;;;;;;1.35;0.45;;;15.90;99.90;;;;;;6273686;28;20052;-75
2023/11/01 15:20:40;;;;;;;1.80;0.60;;;15.90;99.90;;;;;;6272467;28;20045;-78
2023/11/01 15:23:43;;;;;;;1.25;0.52;;;15.90;99.90;;;;;;6273020;28;20045;-76
2023/11/01 15:26:45;;;;;;;4.22;0.40;;;15.80;99.90;;;;;;6272524;28;20045;-76
2023/11/01 15:29:48;;;;;;;0.52;0.40;;;15.80;99.90;;;;;;6275153;28;20045;-77
2023/11/01 15:32:49;;;;;;;0.10;0.10;;;15.80;99.90;;;;;;6273787;28;20049;-77
2023/11/01 15:35:51;;;;;;;1.17;1.17;;;15.70;99.90;;;;;;6261683;28;20052;-76
2023/11/01 15:38:54;;;;;;;0.90;0.30;;;15.70;99.90;;;;;;6260109;28;20054;-77
2023/11/01 15:41:56;;;;;;;1.42;0.30;;;15.60;99.90;;;;;;6249377;28;20049;-77
2023/11/01 15:44:57;;;;;;;5.68;0.52;;;15.60;99.90;;;;;;6252476;28;20057;-76
2023/11/01 15:47:59;;;;;;;2.33;0.50;;;15.50;99.90;;;;;;6270920;28;20045;-77
2023/11/01 15:51:02;;;;;;;1.02;0.60;;;15.50;99.90;;;;;;6251732;28;20048;-76
2023/11/01 15:54:06;;;;;;;2.75;0.50;;;15.50;99.90;;;;;;6259743;28;20045;-77